Time,TemperatureF,DewpointF,PressureIn,WindDirection,WindDirectionDegrees,WindSpeedMPH,WindSpeedGustMPH,Humidity,HourlyPrecipIn,Conditions,Clouds,dailyrainin,SoftwareType,DateUTC
2013-03-31 00:00:00,41.6,24.4,30.04,West,278,0.0,0.0,50,0.00,,CLR,0.00,VWS V14.01,2013-03-31 04:00:00,
2013-03-31 00:05:00,41.6,24.4,30.04,West,278,0.0,0.0,50,0.00,,CLR,0.00,VWS V14.01,2013-03-31 04:05:00,
2013-03-31 00:10:00,41.9,24.1,30.04,West,278,0.0,0.0,49,0.00,,CLR,0.00,VWS V14.01,2013-03-31 04:10:00,
2013-03-31 00:15:00,41.9,24.6,30.04,West,278,0.0,0.0,50,0.00,,CLR,0.00,VWS V14.01,2013-03-31 04:15:00,
2013-03-31 00:20:00,41.8,24.1,30.04,West,278,0.0,0.0,49,0.00,,CLR,0.00,VWS V14.01,2013-03-31 04:20:00,
2013-03-31 00:25:00,41.9,24.1,30.04,West,278,0.0,0.0,49,0.00,,CLR,0.00,VWS V14.01,2013-03-31 04:25:00,
2013-03-31 00:30:00,42.1,24.8,30.04,West,278,0.0,0.0,50,0.00,,CLR,0.00,VWS V14.01,2013-03-31 04:30:00,
2013-03-31 00:35:00,41.6,25.3,30.04,West,278,0.0,0.0,52,0.00,,CLR,0.00,VWS V14.01,2013-03-31 04:35:00,
2013-03-31 00:40:00,41.5,25.2,30.04,West,278,0.0,0.0,52,0.00,,CLR,0.00,VWS V14.01,2013-03-31 04:40:00,
2013-03-31 00:45:00,41.5,25.2,30.04,West,278,0.0,0.0,52,0.00,,CLR,0.00,VWS V14.01,2013-03-31 04:45:00,
2013-03-31 00:50:00,41.5,25.2,30.04,West,278,0.0,0.0,52,0.00,,CLR,0.00,VWS V14.01,2013-03-31 04:50:00,
2013-03-31 00:55:00,41.5,25.2,30.04,West,278,0.0,0.0,52,0.00,,CLR,0.00,VWS V14.01,2013-03-31 04:55:00,
2013-03-31 01:00:00,41.3,25.9,30.04,West,278,0.0,0.0,54,0.00,,CLR,0.00,VWS V14.01,2013-03-31 05:00:00,
2013-03-31 01:05:00,41.2,26.3,30.04,West,278,0.0,0.0,55,0.00,,CLR,0.00,VWS V14.01,2013-03-31 05:05:00,
2013-03-31 01:10:00,40.8,26.3,30.04,West,278,0.0,0.0,56,0.00,,CLR,0.00,VWS V14.01,2013-03-31 05:10:00,
2013-03-31 01:15:00,40.3,25.9,30.04,West,278,0.0,0.0,56,0.00,,CLR,0.00,VWS V14.01,2013-03-31 05:15:00,
2013-03-31 01:20:00,39.9,25.9,30.04,West,278,0.0,0.0,57,0.00,,CLR,0.00,VWS V14.01,2013-03-31 05:20:00,
2013-03-31 01:25:00,39.6,26.5,30.04,West,278,0.0,0.0,59,0.00,,CLR,0.00,VWS V14.01,2013-03-31 05:25:00,
2013-03-31 01:30:00,39.5,26.4,30.04,West,278,0.0,0.0,59,0.00,,CLR,0.00,VWS V14.01,2013-03-31 05:30:00,
2013-03-31 01:35:00,39.3,26.2,30.04,West,278,0.0,0.0,59,0.00,,CLR,0.00,VWS V14.01,2013-03-31 05:35:00,
2013-03-31 01:40:00,39.1,26.0,30.04,West,278,0.0,0.0,59,0.00,,CLR,0.00,VWS V14.01,2013-03-31 05:40:00,
2013-03-31 01:45:00,39.1,26.0,30.04,West,278,0.0,0.0,59,0.00,,CLR,0.00,VWS V14.01,2013-03-31 05:45:00,
2013-03-31 01:50:00,39.1,26.4,30.03,West,278,0.0,1.0,60,0.00,,CLR,0.00,VWS V14.01,2013-03-31 05:50:00,
2013-03-31 01:55:00,38.8,26.9,30.03,West,278,1.0,1.0,62,0.00,,CLR,0.00,VWS V14.01,2013-03-31 05:55:00,
2013-03-31 02:00:00,37.8,26.0,30.03,West,278,0.0,0.0,62,0.00,,CLR,0.00,VWS V14.01,2013-03-31 06:00:00,
2013-03-31 02:05:00,36.9,25.9,30.03,West,278,2.0,2.0,64,0.00,,CLR,0.00,VWS V14.01,2013-03-31 06:05:00,
2013-03-31 02:11:00,36.0,25.0,30.03,NW,325,2.0,3.0,64,0.00,,CLR,0.00,VWS V14.01,2013-03-31 06:11:00,
2013-03-31 02:16:00,36.2,25.6,30.03,NNW,348,4.0,5.0,65,0.00,,CLR,0.00,VWS V14.01,2013-03-31 06:16:00,
2013-03-31 02:21:00,36.8,26.1,30.02,NNW,348,0.0,2.0,65,0.00,,CLR,0.00,VWS V14.01,2013-03-31 06:21:00,
2013-03-31 02:26:00,36.8,26.1,30.02,NNW,348,1.0,1.0,65,0.00,,CLR,0.00,VWS V14.01,2013-03-31 06:26:00,
2013-03-31 02:31:00,36.9,26.2,30.02,NNW,348,0.0,1.0,65,0.00,,CLR,0.00,VWS V14.01,2013-03-31 06:31:00,
2013-03-31 02:36:00,36.8,26.1,30.02,NNW,348,0.0,0.0,65,0.00,,CLR,0.00,VWS V14.01,2013-03-31 06:36:00,
2013-03-31 02:41:00,36.8,26.5,30.02,NNW,348,0.0,0.0,66,0.00,,CLR,0.00,VWS V14.01,2013-03-31 06:41:00,
2013-03-31 02:46:00,36.8,26.5,30.02,NNW,348,0.0,0.0,66,0.00,,CLR,0.00,VWS V14.01,2013-03-31 06:46:00,
2013-03-31 02:51:00,36.3,26.4,30.02,NNW,348,0.0,0.0,67,0.00,,CLR,0.00,VWS V14.01,2013-03-31 06:51:00,
2013-03-31 02:56:00,35.9,26.4,30.02,NNW,348,0.0,0.0,68,0.00,,CLR,0.00,VWS V14.01,2013-03-31 06:56:00,
2013-03-31 03:01:00,35.3,26.2,30.02,NNW,348,0.0,0.0,69,0.00,,CLR,0.00,VWS V14.01,2013-03-31 07:01:00,
2013-03-31 03:06:00,35.0,26.6,30.02,NNW,348,0.0,0.0,71,0.00,,CLR,0.00,VWS V14.01,2013-03-31 07:06:00,
2013-03-31 03:11:00,34.9,26.5,30.02,NNW,348,0.0,0.0,71,0.00,,CLR,0.00,VWS V14.01,2013-03-31 07:11:00,
2013-03-31 03:16:00,35.0,27.2,30.02,NNW,348,0.0,0.0,73,0.00,,CLR,0.00,VWS V14.01,2013-03-31 07:16:00,
2013-03-31 03:21:00,35.5,27.7,30.02,NNW,348,0.0,0.0,73,0.00,,CLR,0.00,VWS V14.01,2013-03-31 07:21:00,
2013-03-31 03:26:00,35.9,27.8,30.02,NNW,348,0.0,0.0,72,0.00,,CLR,0.00,VWS V14.01,2013-03-31 07:26:00,
2013-03-31 03:31:00,36.5,28.4,30.02,NNW,348,0.0,0.0,72,0.00,,CLR,0.00,VWS V14.01,2013-03-31 07:31:00,
2013-03-31 03:36:00,37.0,28.1,30.01,NNW,348,0.0,0.0,70,0.00,,CLR,0.00,VWS V14.01,2013-03-31 07:36:00,
2013-03-31 03:41:00,36.9,28.0,30.01,NNW,348,0.0,0.0,70,0.00,,CLR,0.00,VWS V14.01,2013-03-31 07:41:00,
2013-03-31 03:46:00,36.6,27.8,30.01,NNW,348,0.0,0.0,70,0.00,,CLR,0.00,VWS V14.01,2013-03-31 07:46:00,
2013-03-31 03:51:00,36.3,27.5,30.01,NNW,348,0.0,0.0,70,0.00,,CLR,0.00,VWS V14.01,2013-03-31 07:51:00,
2013-03-31 03:56:00,36.2,27.7,30.01,NNW,348,0.0,0.0,71,0.00,,CLR,0.00,VWS V14.01,2013-03-31 07:56:00,
2013-03-31 04:01:00,36.0,27.9,30.01,NNW,348,0.0,0.0,72,0.00,,CLR,0.00,VWS V14.01,2013-03-31 08:01:00,
2013-03-31 04:06:00,35.6,27.5,30.01,NNW,348,0.0,0.0,72,0.00,,CLR,0.00,VWS V14.01,2013-03-31 08:06:00,
2013-03-31 04:11:00,35.2,27.1,30.01,NNW,348,0.0,0.0,72,0.00,,CLR,0.00,VWS V14.01,2013-03-31 08:11:00,
2013-03-31 04:16:00,34.7,27.0,30.01,NNW,348,0.0,0.0,73,0.00,,CLR,0.00,VWS V14.01,2013-03-31 08:16:00,
2013-03-31 04:21:00,34.4,27.0,30.00,NNW,348,0.0,0.0,74,0.00,,CLR,0.00,VWS V14.01,2013-03-31 08:21:00,
2013-03-31 04:26:00,34.1,27.0,30.00,NNW,348,0.0,1.0,75,0.00,,CLR,0.00,VWS V14.01,2013-03-31 08:26:00,
2013-03-31 04:31:00,33.8,26.7,30.00,NNW,348,0.0,0.0,75,0.00,,CLR,0.00,VWS V14.01,2013-03-31 08:31:00,
2013-03-31 04:36:00,33.5,26.8,30.00,NNW,348,0.0,0.0,76,0.00,,CLR,0.00,VWS V14.01,2013-03-31 08:36:00,
2013-03-31 04:41:00,33.2,26.8,30.00,NNW,348,0.0,0.0,77,0.00,,CLR,0.00,VWS V14.01,2013-03-31 08:41:00,
2013-03-31 04:46:00,32.9,26.5,30.00,NNW,348,0.0,0.0,77,0.00,,CLR,0.00,VWS V14.01,2013-03-31 08:46:00,
2013-03-31 04:51:00,32.7,26.3,30.00,NNW,348,0.0,0.0,77,0.00,,CLR,0.00,VWS V14.01,2013-03-31 08:51:00,
2013-03-31 04:56:00,32.4,26.3,30.00,NNW,348,0.0,1.0,78,0.00,,CLR,0.00,VWS V14.01,2013-03-31 08:56:00,
2013-03-31 05:01:00,32.1,26.0,30.00,NNW,348,0.0,0.0,78,0.00,,CLR,0.00,VWS V14.01,2013-03-31 09:01:00,
2013-03-31 05:06:00,32.1,26.3,30.00,NNW,348,1.0,1.0,79,0.00,,CLR,0.00,VWS V14.01,2013-03-31 09:06:00,
2013-03-31 05:12:00,32.2,26.4,30.00,NNW,348,0.0,1.0,79,0.00,,CLR,0.00,VWS V14.01,2013-03-31 09:12:00,
2013-03-31 05:17:00,32.4,26.9,30.00,NNW,348,0.0,1.0,80,0.00,,CLR,0.00,VWS V14.01,2013-03-31 09:17:00,
2013-03-31 05:22:00,32.8,27.3,30.00,NNW,348,0.0,1.0,80,0.00,,CLR,0.00,VWS V14.01,2013-03-31 09:22:00,
2013-03-31 05:27:00,33.1,27.6,30.00,NNW,348,0.0,1.0,80,0.00,,CLR,0.00,VWS V14.01,2013-03-31 09:27:00,
2013-03-31 05:32:00,33.1,27.6,30.00,NNW,348,0.0,1.0,80,0.00,,CLR,0.00,VWS V14.01,2013-03-31 09:32:00,
2013-03-31 05:37:00,33.2,27.7,29.99,NNW,348,0.0,1.0,80,0.00,,CLR,0.00,VWS V14.01,2013-03-31 09:37:00,
2013-03-31 05:42:00,33.2,27.7,29.99,NNW,348,0.0,2.0,80,0.00,,CLR,0.00,VWS V14.01,2013-03-31 09:42:00,
2013-03-31 05:47:00,33.2,27.7,29.99,NNW,348,0.0,1.0,80,0.00,,CLR,0.00,VWS V14.01,2013-03-31 09:47:00,
2013-03-31 05:52:00,33.1,27.6,29.99,NNW,348,0.0,0.0,80,0.00,,CLR,0.00,VWS V14.01,2013-03-31 09:52:00,
2013-03-31 05:57:00,33.1,27.6,29.99,NNW,348,0.0,0.0,80,0.00,,CLR,0.00,VWS V14.01,2013-03-31 09:57:00,
2013-03-31 06:02:00,32.9,27.4,29.99,NNW,348,0.0,0.0,80,0.00,,CLR,0.00,VWS V14.01,2013-03-31 10:02:00,
2013-03-31 06:07:00,32.9,27.7,29.99,NNW,348,0.0,1.0,81,0.00,,CLR,0.00,VWS V14.01,2013-03-31 10:07:00,
2013-03-31 06:12:00,33.2,28.0,29.99,NNW,348,0.0,1.0,81,0.00,,CLR,0.00,VWS V14.01,2013-03-31 10:12:00,
2013-03-31 06:17:00,33.4,28.2,29.99,NNW,348,0.0,0.0,81,0.00,,CLR,0.00,VWS V14.01,2013-03-31 10:17:00,
2013-03-31 06:22:00,33.4,27.9,29.99,NNW,348,0.0,0.0,80,0.00,,CLR,0.00,VWS V14.01,2013-03-31 10:22:00,
2013-03-31 06:27:00,33.2,27.7,29.99,NNW,348,0.0,1.0,80,0.00,,CLR,0.00,VWS V14.01,2013-03-31 10:27:00,
2013-03-31 06:32:00,33.4,27.9,29.99,NNW,348,1.0,2.0,80,0.00,,CLR,0.00,VWS V14.01,2013-03-31 10:32:00,
2013-03-31 06:37:00,33.8,28.3,29.99,NNW,348,0.0,2.0,80,0.00,,CLR,0.00,VWS V14.01,2013-03-31 10:37:00,
2013-03-31 06:42:00,34.0,28.2,29.99,NNW,348,1.0,1.0,79,0.00,,CLR,0.00,VWS V14.01,2013-03-31 10:42:00,
2013-03-31 06:47:00,33.8,28.0,29.98,NNW,348,2.0,2.0,79,0.00,,CLR,0.00,VWS V14.01,2013-03-31 10:47:00,
2013-03-31 06:52:00,33.7,27.9,29.98,NNW,348,1.0,3.0,79,0.00,,CLR,0.00,VWS V14.01,2013-03-31 10:52:00,
2013-03-31 06:57:00,33.5,27.7,29.98,NNW,348,4.0,4.0,79,0.00,,CLR,0.00,VWS V14.01,2013-03-31 10:57:00,
2013-03-31 07:02:00,33.5,28.0,29.98,North,349,1.0,2.0,80,0.00,,CLR,0.00,VWS V14.01,2013-03-31 11:02:00,
2013-03-31 07:07:00,33.5,28.0,29.98,North,349,1.0,2.0,80,0.00,,CLR,0.00,VWS V14.01,2013-03-31 11:07:00,
2013-03-31 07:12:00,33.5,28.0,29.98,NNW,348,1.0,2.0,80,0.00,,CLR,0.00,VWS V14.01,2013-03-31 11:12:00,
2013-03-31 07:17:00,34.0,28.8,29.99,North,11,2.0,4.0,81,0.00,,CLR,0.00,VWS V14.01,2013-03-31 11:17:00,
2013-03-31 07:22:00,34.3,28.8,29.99,North,11,2.0,2.0,80,0.00,,CLR,0.00,VWS V14.01,2013-03-31 11:22:00,
2013-03-31 07:27:00,34.4,29.2,29.99,North,11,1.0,3.0,81,0.00,,CLR,0.00,VWS V14.01,2013-03-31 11:27:00,
2013-03-31 07:32:00,34.6,29.4,29.98,North,10,2.0,2.0,81,0.00,,CLR,0.00,VWS V14.01,2013-03-31 11:32:00,
2013-03-31 07:37:00,34.6,29.7,29.98,North,11,2.0,2.0,82,0.00,,CLR,0.00,VWS V14.01,2013-03-31 11:37:00,
2013-03-31 07:42:00,34.6,29.4,29.98,North,11,1.0,2.0,81,0.00,,CLR,0.00,VWS V14.01,2013-03-31 11:42:00,
2013-03-31 07:47:00,34.7,29.8,29.98,North,11,1.0,2.0,82,0.00,,CLR,0.00,VWS V14.01,2013-03-31 11:47:00,
2013-03-31 07:52:00,35.0,30.1,29.98,North,11,2.0,2.0,82,0.00,,CLR,0.00,VWS V14.01,2013-03-31 11:52:00,
2013-03-31 07:57:00,35.3,30.7,29.98,North,10,2.0,3.0,83,0.00,,CLR,0.00,VWS V14.01,2013-03-31 11:57:00,
2013-03-31 08:02:00,35.6,31.0,29.98,North,11,0.0,2.0,83,0.00,,CLR,0.00,VWS V14.01,2013-03-31 12:02:00,
2013-03-31 08:07:00,36.2,31.5,29.98,North,11,1.0,4.0,83,0.00,,CLR,0.00,VWS V14.01,2013-03-31 12:07:00,
2013-03-31 08:12:00,36.8,31.8,29.98,NE,41,4.0,5.0,82,0.00,,CLR,0.00,VWS V14.01,2013-03-31 12:12:00,
2013-03-31 08:17:00,37.3,32.3,29.99,NE,41,3.0,3.0,82,0.00,,CLR,0.00,VWS V14.01,2013-03-31 12:17:00,
2013-03-31 08:22:00,37.8,31.9,29.99,NE,41,0.0,4.0,79,0.00,,CLR,0.00,VWS V14.01,2013-03-31 12:22:00,
2013-03-31 08:27:00,38.2,32.0,29.99,NE,41,0.0,3.0,78,0.00,,CLR,0.00,VWS V14.01,2013-03-31 12:27:00,
2013-03-31 08:32:00,38.8,32.2,29.99,NE,42,2.0,4.0,77,0.00,,CLR,0.00,VWS V14.01,2013-03-31 12:32:00,
2013-03-31 08:37:00,39.2,32.3,29.99,NE,42,0.0,4.0,76,0.00,,CLR,0.00,VWS V14.01,2013-03-31 12:37:00,
2013-03-31 08:42:00,39.5,32.6,29.99,NE,44,5.0,5.0,76,0.00,,CLR,0.00,VWS V14.01,2013-03-31 12:42:00,
2013-03-31 08:47:00,39.9,33.3,29.98,ENE,61,0.0,6.0,77,0.00,,CLR,0.00,VWS V14.01,2013-03-31 12:47:00,
2013-03-31 08:52:00,40.5,33.5,29.98,ENE,75,1.0,4.0,76,0.00,,CLR,0.00,VWS V14.01,2013-03-31 12:52:00,
2013-03-31 08:57:00,40.9,33.9,29.98,East,89,0.0,5.0,76,0.00,,CLR,0.00,VWS V14.01,2013-03-31 12:57:00,
2013-03-31 09:02:00,41.3,33.7,29.97,NE,40,3.0,5.0,74,0.00,,CLR,0.00,VWS V14.01,2013-03-31 13:02:00,
2013-03-31 09:07:00,41.9,33.9,29.97,East,98,1.0,4.0,73,0.00,,CLR,0.00,VWS V14.01,2013-03-31 13:07:00,
2013-03-31 09:12:00,42.3,33.9,29.97,East,97,3.0,5.0,72,0.00,,CLR,0.00,VWS V14.01,2013-03-31 13:12:00,
2013-03-31 09:17:00,42.8,34.1,29.97,East,97,0.0,3.0,71,0.00,,CLR,0.00,VWS V14.01,2013-03-31 13:17:00,
2013-03-31 09:22:00,43.2,34.1,29.97,ESE,105,0.0,5.0,70,0.00,,CLR,0.00,VWS V14.01,2013-03-31 13:22:00,
2013-03-31 09:27:00,43.8,35.0,29.97,ESE,105,1.0,3.0,71,0.00,,CLR,0.00,VWS V14.01,2013-03-31 13:27:00,
2013-03-31 09:32:00,44.1,35.0,29.97,ESE,105,0.0,1.0,70,0.00,,CLR,0.00,VWS V14.01,2013-03-31 13:32:00,
2013-03-31 09:37:00,44.3,34.8,29.97,ESE,105,0.0,0.0,69,0.00,,CLR,0.00,VWS V14.01,2013-03-31 13:37:00,
2013-03-31 09:42:00,44.8,34.9,29.97,ESE,105,0.0,2.0,68,0.00,,CLR,0.00,VWS V14.01,2013-03-31 13:42:00,
2013-03-31 09:48:00,45.4,35.1,29.96,ESE,105,1.0,3.0,67,0.00,,CLR,0.00,VWS V14.01,2013-03-31 13:48:00,
2013-03-31 09:53:00,46.0,35.3,29.96,ESE,105,2.0,3.0,66,0.00,,CLR,0.00,VWS V14.01,2013-03-31 13:53:00,
2013-03-31 09:58:00,46.4,35.3,29.96,ESE,104,0.0,4.0,65,0.00,,CLR,0.00,VWS V14.01,2013-03-31 13:58:00,
2013-03-31 10:03:00,47.1,35.6,29.95,ESE,104,2.0,2.0,64,0.00,,CLR,0.00,VWS V14.01,2013-03-31 14:03:00,
2013-03-31 10:08:00,47.9,35.9,29.95,SE,126,5.0,7.0,63,0.00,,CLR,0.00,VWS V14.01,2013-03-31 14:08:00,
2013-03-31 10:13:00,49.4,33.9,29.95,SE,134,4.0,6.0,55,0.00,,CLR,0.00,VWS V14.01,2013-03-31 14:13:00,
2013-03-31 10:18:00,50.8,31.8,29.94,SE,133,5.0,9.0,48,0.00,,CLR,0.00,VWS V14.01,2013-03-31 14:18:00,
2013-03-31 10:23:00,51.7,31.6,29.94,SSE,165,6.0,7.0,46,0.00,,CLR,0.00,VWS V14.01,2013-03-31 14:23:00,
2013-03-31 10:28:00,52.3,32.2,29.94,South,176,6.0,7.0,46,0.00,,CLR,0.00,VWS V14.01,2013-03-31 14:28:00,
2013-03-31 10:33:00,52.5,30.7,29.93,SSE,154,0.0,8.0,43,0.00,,CLR,0.00,VWS V14.01,2013-03-31 14:33:00,
2013-03-31 10:38:00,52.8,32.1,29.93,South,169,7.0,12.0,45,0.00,,CLR,0.00,VWS V14.01,2013-03-31 14:38:00,
2013-03-31 10:43:00,52.8,30.4,29.93,SE,144,4.0,12.0,42,0.00,,CLR,0.00,VWS V14.01,2013-03-31 14:43:00,
2013-03-31 10:48:00,52.8,30.9,29.92,South,174,2.0,11.0,43,0.00,,CLR,0.00,VWS V14.01,2013-03-31 14:48:00,
2013-03-31 10:53:00,52.9,31.0,29.92,SSE,149,1.0,7.0,43,0.00,,CLR,0.00,VWS V14.01,2013-03-31 14:53:00,
2013-03-31 10:58:00,53.3,30.2,29.92,SE,129,7.0,9.0,41,0.00,,CLR,0.00,VWS V14.01,2013-03-31 14:58:00,
2013-03-31 11:03:00,53.5,31.6,29.91,SE,139,7.0,9.0,43,0.00,,CLR,0.00,VWS V14.01,2013-03-31 15:03:00,
2013-03-31 11:08:00,53.6,32.2,29.91,ESE,108,2.0,8.0,44,0.00,,CLR,0.00,VWS V14.01,2013-03-31 15:08:00,
2013-03-31 11:13:00,53.9,32.5,29.91,SSW,199,1.0,7.0,44,0.00,,CLR,0.00,VWS V14.01,2013-03-31 15:13:00,
2013-03-31 11:18:00,54.2,31.0,29.91,ESE,117,6.0,7.0,41,0.00,,CLR,0.00,VWS V14.01,2013-03-31 15:18:00,
2013-03-31 11:23:00,54.5,30.7,29.91,South,172,1.0,12.0,40,0.00,,CLR,0.00,VWS V14.01,2013-03-31 15:23:00,
2013-03-31 11:28:00,54.8,30.3,29.91,South,181,7.0,7.0,39,0.00,,CLR,0.00,VWS V14.01,2013-03-31 15:28:00,
2013-03-31 11:33:00,55.0,30.5,29.91,SSE,165,5.0,9.0,39,0.00,,CLR,0.00,VWS V14.01,2013-03-31 15:33:00,
2013-03-31 11:38:00,55.0,29.2,29.91,SSE,150,1.0,3.0,37,0.00,,CLR,0.00,VWS V14.01,2013-03-31 15:38:00,
2013-03-31 11:43:00,55.1,29.3,29.91,South,180,11.0,11.0,37,0.00,,CLR,0.00,VWS V14.01,2013-03-31 15:43:00,
2013-03-31 11:48:00,55.1,29.3,29.90,SSE,162,6.0,6.0,37,0.00,,CLR,0.00,VWS V14.01,2013-03-31 15:48:00,
2013-03-31 11:53:00,55.1,29.3,29.90,SSE,150,5.0,5.0,37,0.00,,CLR,0.00,VWS V14.01,2013-03-31 15:53:00,
2013-03-31 11:58:00,55.3,29.5,29.90,SW,236,3.0,7.0,37,0.00,,BKN120,0.00,VWS V14.01,2013-03-31 15:58:00,
2013-03-31 12:03:00,55.4,30.2,29.89,SSE,147,6.0,6.0,38,0.00,,BKN120,0.00,VWS V14.01,2013-03-31 16:03:00,
2013-03-31 12:08:00,55.1,31.2,29.89,SE,143,4.0,6.0,40,0.00,,BKN120,0.00,VWS V14.01,2013-03-31 16:08:00,
2013-03-31 12:13:00,55.1,31.2,29.89,WSW,244,5.0,6.0,40,0.00,,BKN120,0.00,VWS V14.01,2013-03-31 16:13:00,
2013-03-31 12:18:00,55.3,31.4,29.88,WSW,245,5.0,11.0,40,0.00,,BKN120,0.00,VWS V14.01,2013-03-31 16:18:00,
2013-03-31 12:23:00,55.3,30.8,29.88,South,179,4.0,6.0,39,0.00,,BKN120,0.00,VWS V14.01,2013-03-31 16:23:00,
2013-03-31 12:28:00,55.4,31.5,29.88,SSE,150,6.0,8.0,40,0.00,,BKN120,0.00,VWS V14.01,2013-03-31 16:28:00,
2013-03-31 12:33:00,55.6,31.7,29.87,SE,130,5.0,5.0,40,0.00,,BKN120,0.00,VWS V14.01,2013-03-31 16:33:00,
2013-03-31 12:38:00,55.9,32.0,29.87,South,179,4.0,5.0,40,0.00,,BKN110,0.00,VWS V14.01,2013-03-31 16:38:00,
2013-03-31 12:43:00,56.0,32.7,29.87,SSE,160,7.0,7.0,41,0.00,,BKN110,0.00,VWS V14.01,2013-03-31 16:43:00,
2013-03-31 12:48:00,55.9,33.2,29.86,ESE,108,5.0,11.0,42,0.00,,BKN110,0.00,VWS V14.01,2013-03-31 16:48:00,
2013-03-31 12:53:00,55.6,31.7,29.86,South,169,7.0,11.0,40,0.00,,BKN110,0.00,VWS V14.01,2013-03-31 16:53:00,
2013-03-31 12:58:00,55.4,32.7,29.86,South,172,4.0,9.0,42,0.00,,BKN120,0.00,VWS V14.01,2013-03-31 16:58:00,
2013-03-31 13:03:00,55.6,32.9,29.86,SW,223,5.0,8.0,42,0.00,,BKN120,0.00,VWS V14.01,2013-03-31 17:03:00,
2013-03-31 13:08:00,55.4,32.7,29.86,SE,140,3.0,5.0,42,0.00,,BKN120,0.00,VWS V14.01,2013-03-31 17:08:00,
2013-03-31 13:13:00,55.1,33.0,29.86,South,169,4.0,7.0,43,0.00,,BKN120,0.00,VWS V14.01,2013-03-31 17:13:00,
2013-03-31 13:18:00,55.0,32.9,29.85,South,179,5.0,12.0,43,0.00,,BKN120,0.00,VWS V14.01,2013-03-31 17:18:00,
2013-03-31 13:23:00,54.8,34.4,29.85,SSE,163,2.0,5.0,46,0.00,,BKN120,0.00,VWS V14.01,2013-03-31 17:23:00,
2013-03-31 13:28:00,54.7,34.3,29.85,SE,131,3.0,5.0,46,0.00,,BKN120,0.00,VWS V14.01,2013-03-31 17:28:00,
2013-03-31 13:33:00,54.5,34.2,29.83,SE,139,1.0,1.0,46,0.00,,BKN120,0.00,VWS V14.01,2013-03-31 17:33:00,
2013-03-31 13:38:00,54.5,34.7,29.83,SE,137,5.0,5.0,47,0.00,,BKN065,0.00,VWS V14.01,2013-03-31 17:38:00,
2013-03-31 13:43:00,54.7,33.8,29.83,SSE,151,7.0,7.0,45,0.00,,BKN065,0.00,VWS V14.01,2013-03-31 17:43:00,
2013-03-31 13:48:00,54.7,34.3,29.82,ESE,107,1.0,1.0,46,0.00,,BKN065,0.00,VWS V14.01,2013-03-31 17:48:00,
2013-03-31 13:53:00,55.0,34.6,29.82,SSE,160,1.0,1.0,46,0.00,,BKN065,0.00,VWS V14.01,2013-03-31 17:53:00,
2013-03-31 13:58:00,55.1,34.7,29.82,ESE,106,0.0,5.0,46,0.00,,BKN045,0.00,VWS V14.01,2013-03-31 17:58:00,
2013-03-31 14:03:00,55.1,34.2,29.82,SE,141,2.0,6.0,45,0.00,,BKN045,0.00,VWS V14.01,2013-03-31 18:03:00,
2013-03-31 14:09:00,55.3,34.3,29.82,SE,139,6.0,9.0,45,0.00,,BKN045,0.00,VWS V14.01,2013-03-31 18:09:00,
2013-03-31 14:14:00,55.6,34.6,29.82,SE,140,5.0,6.0,45,0.00,,BKN045,0.00,VWS V14.01,2013-03-31 18:14:00,
2013-03-31 14:19:00,55.9,34.9,29.81,East,98,0.0,4.0,45,0.00,,BKN045,0.00,VWS V14.01,2013-03-31 18:19:00,
2013-03-31 14:24:00,56.2,35.7,29.81,ESE,119,3.0,5.0,46,0.00,,BKN045,0.00,VWS V14.01,2013-03-31 18:24:00,
2013-03-31 14:29:00,56.2,35.2,29.81,SE,125,0.0,4.0,45,0.00,,BKN045,0.00,VWS V14.01,2013-03-31 18:29:00,
2013-03-31 14:34:00,56.2,34.6,29.80,SSE,147,3.0,7.0,44,0.00,,BKN045,0.00,VWS V14.01,2013-03-31 18:34:00,
2013-03-31 14:39:00,56.0,35.0,29.80,ESE,118,4.0,8.0,45,0.00,,SCT065,0.00,VWS V14.01,2013-03-31 18:39:00,
2013-03-31 14:44:00,55.9,34.9,29.80,ESE,119,2.0,4.0,45,0.00,,SCT065,0.00,VWS V14.01,2013-03-31 18:44:00,
2013-03-31 14:49:00,55.9,34.9,29.78,SE,127,2.0,6.0,45,0.00,,SCT065,0.00,VWS V14.01,2013-03-31 18:49:00,
2013-03-31 14:54:00,56.0,34.4,29.78,SSE,148,4.0,6.0,44,0.00,,SCT065,0.00,VWS V14.01,2013-03-31 18:54:00,
2013-03-31 14:59:00,56.0,35.0,29.78,ESE,115,4.0,5.0,45,0.00,,FEW065,0.00,VWS V14.01,2013-03-31 18:59:00,
2013-03-31 15:04:00,56.0,35.5,29.77,ESE,121,2.0,3.0,46,0.00,,FEW065,0.00,VWS V14.01,2013-03-31 19:04:00,
2013-03-31 15:09:00,55.7,35.3,29.77,SSE,155,4.0,7.0,46,0.00,,FEW065,0.00,VWS V14.01,2013-03-31 19:09:00,
2013-03-31 15:14:00,55.6,36.2,29.77,SSW,203,7.0,7.0,48,0.00,,FEW065,0.00,VWS V14.01,2013-03-31 19:14:00,
2013-03-31 15:19:00,55.4,36.6,29.77,SSW,195,6.0,13.0,49,0.00,,FEW065,0.00,VWS V14.01,2013-03-31 19:19:00,
2013-03-31 15:24:00,55.4,38.6,29.77,South,169,6.0,11.0,53,0.00,,FEW065,0.00,VWS V14.01,2013-03-31 19:24:00,
2013-03-31 15:29:00,55.1,39.2,29.77,South,184,1.0,6.0,55,0.00,,FEW065,0.00,VWS V14.01,2013-03-31 19:29:00,
2013-03-31 15:34:00,54.7,39.3,29.76,SE,141,6.0,6.0,56,0.00,,FEW065,0.00,VWS V14.01,2013-03-31 19:34:00,
2013-03-31 15:39:00,54.4,39.0,29.76,SSE,167,5.0,10.0,56,0.00,,BKN046,0.00,VWS V14.01,2013-03-31 19:39:00,
2013-03-31 15:44:00,54.1,39.7,29.76,SSE,147,0.0,5.0,58,0.00,,BKN046,0.00,VWS V14.01,2013-03-31 19:44:00,
2013-03-31 15:49:00,53.6,39.2,29.76,SE,130,3.0,7.0,58,0.00,,BKN046,0.00,VWS V14.01,2013-03-31 19:49:00,
2013-03-31 15:54:00,53.3,39.8,29.76,SE,124,4.0,11.0,60,0.00,,BKN046,0.00,VWS V14.01,2013-03-31 19:54:00,
2013-03-31 15:59:00,52.8,40.2,29.76,SE,143,5.0,6.0,62,0.00,,OVC048,0.00,VWS V14.01,2013-03-31 19:59:00,
2013-03-31 16:04:00,52.3,40.9,29.75,SSE,147,4.0,7.0,65,0.00,,OVC048,0.00,VWS V14.01,2013-03-31 20:04:00,
2013-03-31 16:09:00,51.9,41.7,29.75,SE,134,2.0,6.0,68,0.00,,OVC048,0.00,VWS V14.01,2013-03-31 20:09:00,
2013-03-31 16:14:00,51.3,41.9,29.75,South,172,5.0,7.0,70,0.00,,OVC048,0.00,VWS V14.01,2013-03-31 20:14:00,
2013-03-31 16:19:00,50.8,42.1,29.75,SE,142,7.0,8.0,72,0.00,,OVC048,0.00,VWS V14.01,2013-03-31 20:19:00,
2013-03-31 16:24:00,50.2,42.2,29.75,ESE,106,6.0,7.0,74,0.00,,OVC048,0.00,VWS V14.01,2013-03-31 20:24:00,
2013-03-31 16:29:00,49.8,42.5,29.75,SE,124,0.0,3.0,76,0.00,,OVC048,0.00,VWS V14.01,2013-03-31 20:29:00,
2013-03-31 16:34:00,49.5,42.6,29.74,SE,124,6.0,6.0,77,0.00,,OVC048,0.00,VWS V14.01,2013-03-31 20:34:00,
2013-03-31 16:39:00,49.2,43.0,29.74,ESE,120,6.0,7.0,79,0.00,,OVC070,0.00,VWS V14.01,2013-03-31 20:39:00,
2013-03-31 16:44:00,48.9,42.7,29.74,ESE,117,6.0,11.0,79,0.00,,OVC070,0.00,VWS V14.01,2013-03-31 20:44:00,
2013-03-31 16:49:00,48.8,43.2,29.74,SE,138,2.0,7.0,81,0.00,,OVC070,0.00,VWS V14.01,2013-03-31 20:49:00,
2013-03-31 16:54:00,48.5,43.6,29.74,ESE,122,2.0,5.0,83,0.00,,OVC070,0.00,VWS V14.01,2013-03-31 20:54:00,
2013-03-31 16:59:00,48.2,43.6,29.74,SE,135,2.0,10.0,84,0.00,,OVC070,0.00,VWS V14.01,2013-03-31 20:59:00,
2013-03-31 17:04:00,47.9,43.6,29.73,ESE,111,0.0,1.0,85,0.00,,OVC070,0.00,VWS V14.01,2013-03-31 21:04:00,
2013-03-31 17:09:00,47.6,43.9,29.73,East,99,4.0,5.0,87,0.00,,OVC039,0.00,VWS V14.01,2013-03-31 21:09:00,
2013-03-31 17:15:00,47.6,43.9,29.73,SE,133,5.0,7.0,87,0.00,,OVC039,0.00,VWS V14.01,2013-03-31 21:15:00,
2013-03-31 17:20:00,47.4,44.0,29.72,SE,137,4.0,7.0,88,0.00,,OVC039,0.00,VWS V14.01,2013-03-31 21:20:00,
2013-03-31 17:25:00,47.3,44.2,29.72,East,98,2.0,2.0,89,0.00,,OVC039,0.00,VWS V14.01,2013-03-31 21:25:00,
2013-03-31 17:30:00,47.1,44.3,29.72,East,96,2.0,4.0,90,0.00,,OVC039,0.00,VWS V14.01,2013-03-31 21:30:00,
2013-03-31 17:35:00,47.1,44.3,29.71,ENE,60,4.0,5.0,90,0.00,,OVC039,0.00,VWS V14.01,2013-03-31 21:35:00,
2013-03-31 17:40:00,47.0,44.5,29.71,SE,124,2.0,7.0,91,0.00,,OVC035,0.00,VWS V14.01,2013-03-31 21:40:00,
2013-03-31 17:45:00,47.0,44.5,29.71,ENE,74,0.0,5.0,91,0.00,,OVC035,0.00,VWS V14.01,2013-03-31 21:45:00,
2013-03-31 17:50:00,47.0,44.5,29.70,SE,131,0.0,5.0,91,0.00,,OVC035,0.00,VWS V14.01,2013-03-31 21:50:00,
2013-03-31 17:55:00,47.0,44.8,29.70,East,91,6.0,8.0,92,0.00,,OVC028,0.00,VWS V14.01,2013-03-31 21:55:00,
2013-03-31 18:00:00,46.8,44.6,29.70,ESE,106,8.0,11.0,92,0.00,,OVC028,0.00,VWS V14.01,2013-03-31 22:00:00,
2013-03-31 18:05:00,46.8,44.6,29.70,SSE,168,5.0,10.0,92,0.00,,OVC028,0.00,VWS V14.01,2013-03-31 22:05:00,
2013-03-31 18:10:00,46.8,44.6,29.70,SE,141,7.0,10.0,92,0.00,,OVC028,0.00,VWS V14.01,2013-03-31 22:10:00,
2013-03-31 18:15:00,46.8,44.6,29.70,ESE,113,4.0,5.0,92,0.00,,OVC028,0.00,VWS V14.01,2013-03-31 22:15:00,
2013-03-31 18:20:00,46.7,44.8,29.68,ESE,113,4.0,7.0,93,0.00,,OVC028,0.00,VWS V14.01,2013-03-31 22:20:00,
2013-03-31 18:25:00,46.7,44.8,29.68,East,98,10.0,10.0,93,0.00,,OVC028,0.00,VWS V14.01,2013-03-31 22:25:00,
2013-03-31 18:30:00,46.5,44.6,29.68,East,94,4.0,9.0,93,0.00,,OVC028,0.00,VWS V14.01,2013-03-31 22:30:00,
2013-03-31 18:35:00,46.5,44.6,29.67,SE,124,9.0,9.0,93,0.00,,OVC028,0.00,VWS V14.01,2013-03-31 22:35:00,
2013-03-31 18:40:00,46.5,44.6,29.67,ESE,112,4.0,8.0,93,0.00,,OVC007,0.00,VWS V14.01,2013-03-31 22:40:00,
2013-03-31 18:45:00,46.4,44.5,29.67,ESE,117,5.0,7.0,93,0.00,,OVC007,0.00,VWS V14.01,2013-03-31 22:45:00,
2013-03-31 18:50:00,46.4,44.5,29.67,ESE,121,5.0,13.0,93,0.00,,OVC007,0.00,VWS V14.01,2013-03-31 22:50:00,
2013-03-31 18:55:00,46.4,44.8,29.67,ESE,115,5.0,7.0,94,0.00,,OVC007,0.00,VWS V14.01,2013-03-31 22:55:00,
2013-03-31 19:00:00,46.4,44.8,29.67,ESE,106,5.0,7.0,94,0.00,,OVC006,0.00,VWS V14.01,2013-03-31 23:00:00,
2013-03-31 19:05:00,46.4,44.8,29.66,South,184,6.0,6.0,94,0.00,,OVC006,0.00,VWS V14.01,2013-03-31 23:05:00,
2013-03-31 19:10:00,46.4,44.8,29.66,East,101,4.0,5.0,94,0.00,,OVC006,0.00,VWS V14.01,2013-03-31 23:10:00,
2013-03-31 19:15:00,46.4,44.8,29.66,ESE,105,0.0,5.0,94,0.00,,OVC006,0.00,VWS V14.01,2013-03-31 23:15:00,
2013-03-31 19:20:00,46.4,44.8,29.65,SSE,149,4.0,6.0,94,0.00,,OVC006,0.00,VWS V14.01,2013-03-31 23:20:00,
2013-03-31 19:25:00,46.4,44.8,29.65,ESE,118,4.0,5.0,94,0.00,,OVC006,0.00,VWS V14.01,2013-03-31 23:25:00,
2013-03-31 19:30:00,46.4,44.8,29.65,ESE,117,8.0,8.0,94,0.00,,OVC006,0.00,VWS V14.01,2013-03-31 23:30:00,
2013-03-31 19:35:00,46.4,45.0,29.65,ESE,108,4.0,4.0,95,0.00,,OVC006,0.00,VWS V14.01,2013-03-31 23:35:00,
2013-03-31 19:40:00,46.4,45.0,29.65,ESE,117,5.0,7.0,95,0.00,,OVC006,0.00,VWS V14.01,2013-03-31 23:40:00,
2013-03-31 19:45:00,46.4,45.0,29.65,East,81,0.0,4.0,95,0.00,,OVC006,0.00,VWS V14.01,2013-03-31 23:45:00,
2013-03-31 19:50:00,46.4,45.0,29.64,ESE,110,3.0,7.0,95,0.00,,OVC006,0.00,VWS V14.01,2013-03-31 23:50:00,
2013-03-31 19:55:00,46.4,45.0,29.64,ESE,113,3.0,8.0,95,0.00,,OVC006,0.00,VWS V14.01,2013-03-31 23:55:00,
2013-03-31 20:00:00,46.4,45.0,29.64,ESE,117,0.0,6.0,95,0.00,,OVC006,0.00,VWS V14.01,2013-04-01 00:00:00,
2013-03-31 20:05:00,46.4,45.0,29.64,ESE,117,0.0,0.0,95,0.00,,OVC006,0.00,VWS V14.01,2013-04-01 00:05:00,
2013-03-31 20:10:00,46.5,45.2,29.64,ESE,117,0.0,4.0,95,0.00,,OVC006,0.00,VWS V14.01,2013-04-01 00:10:00,
2013-03-31 20:15:00,46.5,45.2,29.64,ESE,108,0.0,2.0,95,0.00,,OVC006,0.00,VWS V14.01,2013-04-01 00:15:00,
2013-03-31 20:20:00,46.5,45.2,29.65,ESE,108,0.0,0.0,95,0.00,,OVC006,0.00,VWS V14.01,2013-04-01 00:20:00,
2013-03-31 20:25:00,46.5,45.4,29.65,ESE,108,1.0,1.0,96,0.00,,OVC006,0.00,VWS V14.01,2013-04-01 00:25:00,
2013-03-31 20:30:00,46.5,45.4,29.65,East,101,0.0,3.0,96,0.00,,OVC006,0.00,VWS V14.01,2013-04-01 00:30:00,
2013-03-31 20:35:00,46.5,45.4,29.63,ESE,105,0.0,5.0,96,0.00,,OVC006,0.00,VWS V14.01,2013-04-01 00:35:00,
2013-03-31 20:40:00,46.5,45.4,29.63,East,96,0.0,4.0,96,0.00,,OVC004,0.00,VWS V14.01,2013-04-01 00:40:00,
2013-03-31 20:45:00,46.5,45.4,29.63,East,100,2.0,2.0,96,0.00,,OVC004,0.00,VWS V14.01,2013-04-01 00:45:00,
2013-03-31 20:50:00,46.5,45.4,29.63,East,84,1.0,4.0,96,0.00,,OVC004,0.00,VWS V14.01,2013-04-01 00:50:00,
2013-03-31 20:55:00,46.5,45.4,29.63,East,95,0.0,0.0,96,0.00,,OVC004,0.00,VWS V14.01,2013-04-01 00:55:00,
2013-03-31 21:00:00,46.4,45.3,29.63,East,94,0.0,0.0,96,0.00,,OVC004,0.00,VWS V14.01,2013-04-01 01:00:00,
2013-03-31 21:05:00,46.4,45.3,29.63,East,94,1.0,1.0,96,0.00,,OVC004,0.00,VWS V14.01,2013-04-01 01:05:00,
2013-03-31 21:10:00,46.4,45.3,29.63,East,94,0.0,0.0,96,0.00,,OVC004,0.00,VWS V14.01,2013-04-01 01:10:00,
2013-03-31 21:15:00,46.4,45.3,29.63,East,94,0.0,0.0,96,0.00,,OVC004,0.00,VWS V14.01,2013-04-01 01:15:00,
2013-03-31 21:20:00,46.5,45.4,29.63,East,94,0.0,0.0,96,0.00,,OVC004,0.00,VWS V14.01,2013-04-01 01:20:00,
2013-03-31 21:25:00,46.5,45.4,29.63,East,94,0.0,0.0,96,0.00,,OVC004,0.00,VWS V14.01,2013-04-01 01:25:00,
2013-03-31 21:30:00,46.5,45.4,29.63,East,94,0.0,0.0,96,0.00,,OVC004,0.00,VWS V14.01,2013-04-01 01:30:00,
2013-03-31 21:35:00,46.5,45.4,29.63,East,94,0.0,0.0,96,0.00,,OVC004,0.00,VWS V14.01,2013-04-01 01:35:00,
2013-03-31 21:40:00,46.5,45.7,29.63,East,94,0.0,0.0,97,0.00,,OVC003,0.00,VWS V14.01,2013-04-01 01:40:00,
2013-03-31 21:45:00,46.5,45.7,29.63,East,94,0.0,0.0,97,0.00,,OVC003,0.00,VWS V14.01,2013-04-01 01:45:00,
2013-03-31 21:50:00,46.5,45.7,29.63,East,94,0.0,0.0,97,0.00,,OVC003,0.00,VWS V14.01,2013-04-01 01:50:00,
2013-03-31 21:55:00,46.5,45.7,29.63,East,94,0.0,0.0,97,0.00,,OVC003,0.00,VWS V14.01,2013-04-01 01:55:00,
2013-03-31 22:00:00,46.7,45.9,29.63,SSW,205,1.0,3.0,97,0.00,,OVC003,0.00,VWS V14.01,2013-04-01 02:00:00,
2013-03-31 22:05:00,46.7,45.9,29.63,SSW,205,0.0,0.0,97,0.00,,OVC003,0.00,VWS V14.01,2013-04-01 02:05:00,
2013-03-31 22:10:00,46.8,46.0,29.63,West,264,2.0,2.0,97,0.00,,OVC003,0.00,VWS V14.01,2013-04-01 02:10:00,
2013-03-31 22:15:00,47.0,46.2,29.63,WSW,245,1.0,4.0,97,0.00,,OVC003,0.00,VWS V14.01,2013-04-01 02:15:00,
2013-03-31 22:20:00,47.1,46.3,29.63,West,281,2.0,5.0,97,0.00,,OVC003,0.00,VWS V14.01,2013-04-01 02:20:00,
2013-03-31 22:25:00,47.1,46.3,29.63,SW,229,2.0,5.0,97,0.00,,OVC003,0.00,VWS V14.01,2013-04-01 02:25:00,
2013-03-31 22:30:00,47.1,46.3,29.63,WSW,243,4.0,6.0,97,0.00,,OVC003,0.00,VWS V14.01,2013-04-01 02:30:00,
2013-03-31 22:35:00,47.1,46.3,29.62,West,259,2.0,5.0,97,0.00,,OVC002,0.00,VWS V14.01,2013-04-01 02:35:00,
2013-03-31 22:40:00,47.1,46.3,29.62,West,280,2.0,4.0,97,0.00,,OVC002,0.00,VWS V14.01,2013-04-01 02:40:00,
2013-03-31 22:45:00,47.1,46.3,29.62,West,276,4.0,6.0,97,0.00,,OVC002,0.00,VWS V14.01,2013-04-01 02:45:00,
2013-03-31 22:50:00,47.1,46.3,29.63,West,278,4.0,8.0,97,0.00,,OVC002,0.00,VWS V14.01,2013-04-01 02:50:00,
2013-03-31 22:55:00,47.3,46.5,29.63,WNW,294,10.0,10.0,97,0.00,,OVC001,0.00,VWS V14.01,2013-04-01 02:55:00,
2013-03-31 23:00:00,47.3,46.5,29.63,NW,305,6.0,6.0,97,0.00,,OVC001,0.00,VWS V14.01,2013-04-01 03:00:00,
2013-03-31 23:05:00,47.3,46.5,29.62,WSW,244,1.0,7.0,97,0.00,,OVC001,0.00,VWS V14.01,2013-04-01 03:05:00,
2013-03-31 23:10:00,47.1,46.3,29.62,SSW,205,0.0,5.0,97,0.00,,OVC001,0.00,VWS V14.01,2013-04-01 03:10:00,
2013-03-31 23:15:00,47.1,46.6,29.62,SW,236,4.0,7.0,98,0.00,,OVC001,0.00,VWS V14.01,2013-04-01 03:15:00,
2013-03-31 23:20:00,47.1,46.6,29.62,West,259,4.0,7.0,98,0.00,,OVC001,0.00,VWS V14.01,2013-04-01 03:20:00,
2013-03-31 23:25:00,47.1,46.6,29.62,WSW,252,1.0,6.0,98,0.00,,OVC001,0.00,VWS V14.01,2013-04-01 03:25:00,
2013-03-31 23:30:00,47.1,46.6,29.62,WSW,257,3.0,4.0,98,0.00,,OVC001,0.00,VWS V14.01,2013-04-01 03:30:00,
2013-03-31 23:35:00,47.1,46.6,29.62,WNW,288,5.0,7.0,98,0.00,,OVC002,0.00,VWS V14.01,2013-04-01 03:35:00,
2013-03-31 23:40:00,47.1,46.6,29.62,WSW,257,4.0,8.0,98,0.00,,OVC002,0.00,VWS V14.01,2013-04-01 03:40:00,
2013-03-31 23:45:00,47.1,46.6,29.62,West,262,5.0,6.0,98,0.00,,OVC002,0.00,VWS V14.01,2013-04-01 03:45:00,
2013-03-31 23:50:00,47.1,46.6,29.62,WSW,237,4.0,9.0,98,0.00,,OVC002,0.00,VWS V14.01,2013-04-01 03:50:00,
2013-03-31 23:55:00,47.1,46.6,29.62,West,271,2.0,5.0,98,0.00,,OVC005,0.00,VWS V14.01,2013-04-01 03:55:00,